TAF KFMY
KFMY 072323Z 0800/0824 28005KT P6SM SCT250 FM080100 VRB03KT P6SM FEW020 SCT250 FM080900 00000KT 4SM BR SCT010 SCT250 TEMPO 0810/0813 1SM BR BKN010 FM081400 18003KT P6SM SCT020 SCT250 FM081700 23008KT P6SM SCT025 BKN250=
METAR KFMY
WC KFMY
WS KFMY
WV KFMY